createdAt,value
2023-03-20T00:02:21.675Z,82.71
2023-03-20T00:04:50.080Z,82.61
2023-03-20T00:07:18.050Z,83.14
2023-03-20T00:09:46.109Z,83.10
2023-03-20T00:12:19.653Z,83.18
2023-03-20T00:14:48.974Z,83.43
2023-03-20T00:17:22.021Z,83.34
2023-03-20T00:19:50.334Z,84.59
2023-03-20T00:22:18.358Z,84.25
2023-03-20T00:24:46.589Z,85.42
2023-03-20T00:27:17.501Z,85.25
2023-03-20T00:29:45.908Z,85.46
2023-03-20T00:32:16.777Z,86.13
2023-03-20T00:34:44.801Z,85.34
2023-03-20T00:37:12.787Z,85.69
2023-03-20T00:39:40.852Z,86.64
2023-03-20T00:42:21.516Z,86.49
2023-03-20T00:44:54.413Z,86.68
2023-03-20T00:47:25.654Z,86.43
2023-03-20T00:49:55.738Z,86.43
2023-03-20T00:52:25.067Z,86.62
2023-03-20T00:54:53.389Z,87.55
2023-03-20T00:57:27.538Z,87.23
2023-03-20T01:00:01.447Z,86.92
2023-03-20T01:02:32.110Z,86.95
2023-03-20T01:05:00.139Z,87.86
2023-03-20T01:07:28.759Z,87.23
2023-03-20T01:09:56.665Z,87.44
2023-03-20T01:12:24.867Z,87.47
2023-03-20T01:14:56.637Z,88.18
2023-03-20T01:17:27.445Z,88.31
2023-03-20T01:19:56.823Z,87.63
2023-03-20T01:22:24.847Z,88.02
2023-03-20T01:24:52.765Z,88.73
2023-03-20T01:27:21.642Z,88.68
2023-03-20T01:29:49.612Z,88.56
2023-03-20T01:32:20.143Z,87.67
2023-03-20T01:34:48.550Z,87.74
2023-03-20T01:37:24.542Z,87.77
2023-03-20T01:39:52.563Z,87.37
2023-03-20T01:42:20.921Z,86.61
2023-03-20T01:44:48.981Z,86.77
2023-03-20T01:47:20.922Z,86.36
2023-03-20T01:50:30.315Z,86.91
2023-03-20T01:53:14.170Z,87.36
2023-03-20T01:55:45.630Z,87.34
2023-03-20T01:58:21.428Z,87.31
2023-03-20T02:00:49.884Z,87.58
2023-03-20T02:03:19.996Z,86.85
2023-03-20T02:05:48.886Z,88.03
2023-03-20T02:08:28.463Z,88.13
2023-03-20T02:10:58.184Z,87.97
2023-03-20T02:13:29.105Z,88.26
2023-03-20T02:16:05.563Z,88.72
2023-03-20T02:18:34.859Z,88.75
2023-03-20T02:22:06.581Z,89.10
2023-03-20T02:25:25.827Z,89.08
2023-03-20T02:28:34.331Z,89.15
2023-03-20T02:31:35.728Z,89.29
2023-03-20T02:34:47.332Z,89.33
2023-03-20T02:37:50.535Z,89.39
2023-03-20T02:40:29.051Z,89.61
2023-03-20T02:43:07.529Z,89.39
2023-03-20T02:45:49.480Z,89.28
2023-03-20T02:48:34.253Z,89.05
2023-03-20T02:51:11.070Z,88.86
2023-03-20T02:53:53.376Z,88.77
2023-03-20T02:56:31.695Z,88.60
2023-03-20T02:59:13.483Z,88.82
2023-03-20T03:01:47.125Z,88.64
2023-03-20T03:04:21.207Z,88.22
2023-03-20T03:06:55.856Z,88.33
2023-03-20T03:09:31.190Z,88.34
2023-03-20T03:12:05.819Z,87.59
2023-03-20T03:14:41.881Z,88.12
2023-03-20T03:17:14.026Z,88.17
2023-03-20T03:19:48.033Z,88.49
2023-03-20T03:22:17.751Z,88.49
2023-03-20T03:24:49.091Z,88.58
2023-03-20T03:27:24.005Z,88.71
2023-03-20T03:29:58.033Z,89.00
2023-03-20T03:32:34.384Z,89.01
2023-03-20T03:35:05.427Z,88.67
2023-03-20T03:37:50.327Z,89.21
2023-03-20T03:40:29.018Z,89.24
2023-03-20T03:43:07.319Z,89.68
2023-03-20T03:45:45.476Z,89.73
2023-03-20T03:48:21.535Z,89.51
2023-03-20T03:50:55.232Z,89.46
2023-03-20T03:53:30.379Z,89.68
2023-03-20T03:56:07.278Z,89.28
2023-03-20T03:58:41.489Z,89.88
2023-03-20T04:01:13.603Z,89.80
2023-03-20T04:03:48.084Z,89.52
2023-03-20T04:06:18.967Z,90.20
2023-03-20T04:08:47.036Z,89.91
2023-03-20T04:11:20.180Z,89.72
2023-03-20T04:13:51.382Z,89.92
2023-03-20T04:16:24.243Z,89.92
2023-03-20T04:18:53.293Z,90.43
2023-03-20T04:21:21.255Z,89.97
2023-03-20T04:23:49.206Z,89.72
2023-03-20T04:26:18.465Z,89.86
2023-03-20T04:28:46.464Z,90.14
2023-03-20T04:31:14.471Z,90.13
2023-03-20T04:33:42.920Z,90.20
2023-03-20T04:36:11.690Z,90.41
2023-03-20T04:38:39.625Z,90.08
2023-03-20T04:41:08.738Z,90.54
2023-03-20T04:43:38.045Z,90.16
2023-03-20T04:46:06.735Z,89.99
2023-03-20T04:48:34.611Z,90.27
2023-03-20T04:51:02.545Z,90.55
2023-03-20T04:53:30.385Z,90.37
2023-03-20T04:56:00.609Z,90.13
2023-03-20T04:58:29.728Z,90.23
2023-03-20T05:00:59.057Z,90.33
2023-03-20T05:03:27.647Z,89.97
2023-03-20T05:05:55.543Z,90.34
2023-03-20T05:08:23.479Z,90.32
2023-03-20T05:10:51.754Z,90.57
2023-03-20T05:13:19.691Z,90.93
2023-03-20T05:15:47.838Z,90.79
2023-03-20T05:18:17.271Z,90.88
2023-03-20T05:20:45.194Z,90.30
2023-03-20T05:23:13.251Z,90.77
2023-03-20T05:25:41.290Z,90.73
2023-03-20T05:28:09.254Z,90.55
2023-03-20T05:30:37.239Z,90.37
2023-03-20T05:33:05.591Z,90.73
2023-03-20T05:35:35.306Z,90.93
2023-03-20T05:38:03.625Z,90.94
2023-03-20T05:40:31.716Z,91.05
2023-03-20T05:42:59.668Z,91.06
2023-03-20T05:45:27.622Z,91.44
2023-03-20T05:47:55.554Z,91.36
2023-03-20T05:50:23.652Z,91.15
2023-03-20T05:52:52.992Z,91.36
2023-03-20T05:55:21.130Z,90.96
2023-03-20T05:57:49.107Z,91.21
2023-03-20T06:00:18.560Z,90.99
2023-03-20T06:02:47.713Z,90.66
2023-03-20T06:05:16.018Z,91.10
2023-03-20T06:07:44.523Z,92.01
2023-03-20T06:10:14.189Z,92.42
2023-03-20T06:12:41.856Z,92.37
2023-03-20T06:15:10.328Z,92.68
2023-03-20T06:17:38.281Z,92.81
2023-03-20T06:20:08.206Z,92.97
2023-03-20T06:22:36.010Z,93.34
2023-03-20T06:25:04.115Z,93.09
2023-03-20T06:27:33.432Z,93.11
2023-03-20T06:30:01.625Z,93.07
2023-03-20T06:32:29.586Z,92.91
2023-03-20T06:34:57.537Z,93.06
2023-03-20T06:37:26.124Z,92.98
2023-03-20T06:39:54.101Z,92.70
2023-03-20T06:42:22.055Z,92.45
2023-03-20T06:44:51.332Z,92.10
2023-03-20T06:47:19.267Z,92.28
2023-03-20T06:49:47.275Z,91.92
2023-03-20T06:52:18.516Z,91.42
2023-03-20T06:54:46.739Z,90.83
2023-03-20T06:57:17.588Z,90.49
2023-03-20T06:59:45.639Z,91.10
2023-03-20T07:02:16.243Z,90.94
2023-03-20T07:04:44.197Z,91.93
2023-03-20T07:07:12.713Z,91.99
2023-03-20T07:09:40.644Z,92.27
2023-03-20T07:12:14.754Z,91.75
2023-03-20T07:14:43.208Z,91.86
2023-03-20T07:17:11.742Z,92.12
2023-03-20T07:19:41.433Z,91.57
2023-03-20T07:22:16.355Z,91.97
2023-03-20T07:24:47.193Z,91.93
2023-03-20T07:27:15.416Z,92.03
2023-03-20T07:29:43.354Z,92.40
2023-03-20T07:32:11.590Z,92.68
2023-03-20T07:34:41.008Z,91.96
2023-03-20T07:37:09.009Z,91.62
2023-03-20T07:39:37.072Z,90.87
2023-03-20T07:42:05.472Z,90.24
2023-03-20T07:44:33.501Z,89.71
2023-03-20T07:47:01.426Z,89.28
2023-03-20T07:49:29.482Z,88.87
2023-03-20T07:51:58.807Z,88.86
2023-03-20T07:54:26.995Z,88.45
2023-03-20T07:56:55.089Z,88.15
2023-03-20T07:59:23.016Z,88.04
2023-03-20T08:01:51.409Z,87.62
2023-03-20T08:04:22.402Z,87.01
2023-03-20T08:06:51.161Z,87.18
2023-03-20T08:09:20.783Z,87.17
2023-03-20T08:11:48.832Z,86.86
2023-03-20T08:14:16.789Z,86.94
2023-03-20T08:16:44.808Z,86.48
2023-03-20T08:19:12.812Z,85.80
2023-03-20T08:21:40.886Z,86.12
2023-03-20T08:24:09.857Z,85.09
2023-03-20T08:26:39.196Z,84.32
2023-03-20T08:29:07.167Z,84.64
2023-03-20T08:31:35.208Z,83.91
2023-03-20T08:34:04.250Z,83.09
2023-03-20T08:36:32.188Z,82.61
2023-03-20T08:39:00.134Z,81.97
2023-03-20T08:41:28.164Z,81.61
2023-03-20T08:43:57.423Z,81.50
2023-03-20T08:46:25.335Z,79.87
2023-03-20T08:48:53.381Z,79.46
2023-03-20T08:51:21.437Z,78.11
2023-03-20T08:53:49.362Z,76.80
2023-03-20T08:56:17.288Z,77.10
2023-03-20T08:58:45.209Z,76.10
2023-03-20T09:01:15.410Z,75.01
2023-03-20T09:03:43.478Z,74.56
2023-03-20T09:06:12.146Z,75.76
2023-03-20T09:08:40.402Z,74.75
2023-03-20T09:11:08.887Z,73.10
2023-03-20T09:13:36.865Z,72.53
2023-03-20T09:16:05.422Z,72.18
2023-03-20T09:18:34.783Z,72.44
2023-03-20T09:21:02.777Z,72.35
2023-03-20T09:23:31.998Z,72.02
2023-03-20T09:26:00.681Z,71.59
2023-03-20T09:28:28.818Z,70.69
2023-03-20T09:30:57.721Z,71.77
2023-03-20T09:33:25.841Z,70.81
2023-03-20T09:35:55.418Z,71.37
2023-03-20T09:38:24.355Z,70.68
2023-03-20T09:40:55.866Z,70.80
2023-03-20T09:43:59.647Z,70.64
2023-03-20T09:47:19.462Z,69.50
2023-03-20T09:50:22.233Z,69.23
2023-03-20T09:53:00.445Z,69.32
2023-03-20T09:55:36.298Z,69.41
2023-03-20T09:58:14.528Z,68.97
2023-03-20T10:00:47.053Z,69.75
2023-03-20T10:03:22.197Z,69.84
2023-03-20T10:06:01.625Z,70.35
2023-03-20T10:08:36.387Z,70.14
2023-03-20T10:11:35.603Z,70.12
2023-03-20T10:14:25.540Z,70.78
2023-03-20T10:17:17.249Z,71.13
2023-03-20T10:19:50.430Z,70.57
2023-03-20T10:22:27.121Z,70.30
2023-03-20T10:25:07.269Z,70.02
2023-03-20T10:27:41.240Z,69.53
2023-03-20T10:30:31.152Z,70.01
2023-03-20T10:33:22.126Z,69.04
2023-03-20T10:36:01.765Z,68.21
2023-03-20T10:38:41.509Z,68.32
2023-03-20T10:41:17.616Z,68.62
2023-03-20T10:43:50.034Z,67.65
2023-03-20T10:46:25.617Z,67.60
2023-03-20T10:49:02.846Z,67.52
2023-03-20T10:51:43.476Z,68.11
2023-03-20T10:54:25.867Z,68.57
2023-03-20T10:57:00.037Z,68.22
2023-03-20T10:59:34.817Z,68.34
2023-03-20T11:02:02.706Z,68.54
2023-03-20T11:04:30.634Z,68.74
2023-03-20T11:07:09.084Z,68.47
2023-03-20T11:09:37.125Z,68.73
2023-03-20T11:12:16.402Z,67.78
2023-03-20T11:14:50.028Z,68.08
2023-03-20T11:17:18.329Z,67.76
2023-03-20T11:19:46.290Z,68.32
2023-03-20T11:22:26.644Z,68.61
2023-03-20T11:24:58.928Z,68.38
2023-03-20T11:27:32.966Z,67.41
2023-03-20T11:30:07.365Z,67.93
2023-03-20T11:32:41.774Z,67.40
2023-03-20T11:35:23.811Z,68.34
2023-03-20T11:37:55.314Z,69.09
2023-03-20T11:40:26.447Z,69.31
2023-03-20T11:42:58.815Z,69.11
2023-03-20T11:45:27.265Z,69.54
2023-03-20T11:47:58.537Z,69.07
2023-03-20T11:50:34.375Z,68.75
2023-03-20T11:53:03.848Z,68.59
2023-03-20T11:55:35.454Z,68.42
2023-03-20T11:58:12.970Z,68.33
2023-03-20T12:00:43.334Z,68.32
2023-03-20T12:03:45.050Z,69.17
2023-03-20T12:06:19.557Z,69.53
2023-03-20T12:09:03.081Z,69.08
2023-03-20T12:11:49.807Z,68.36
2023-03-20T12:14:29.010Z,68.30
2023-03-20T12:17:26.268Z,68.81
2023-03-20T12:19:58.742Z,68.59
2023-03-20T12:22:34.630Z,68.84
2023-03-20T12:25:16.606Z,68.97
2023-03-20T12:27:51.475Z,68.18
2023-03-20T12:30:31.873Z,68.41
2023-03-20T12:33:08.226Z,68.74
2023-03-20T12:35:42.646Z,68.86
2023-03-20T12:38:26.112Z,69.09
2023-03-20T12:41:01.917Z,69.05
2023-03-20T12:43:46.912Z,69.89
2023-03-20T12:46:36.949Z,69.53
2023-03-20T12:49:22.043Z,69.56
2023-03-20T12:52:08.286Z,69.86
2023-03-20T12:55:07.112Z,69.15
2023-03-20T12:57:46.642Z,69.73
2023-03-20T13:00:30.398Z,69.17
2023-03-20T13:03:21.004Z,68.57
2023-03-20T13:06:00.796Z,67.80
2023-03-20T13:08:45.835Z,68.02
2023-03-20T13:11:25.448Z,68.05
2023-03-20T13:14:00.905Z,67.39
2023-03-20T13:16:46.198Z,67.34
2023-03-20T13:19:28.732Z,67.36
2023-03-20T13:22:06.510Z,65.57
2023-03-20T13:24:44.714Z,66.20
2023-03-20T13:27:34.565Z,66.44
2023-03-20T13:30:16.350Z,67.11
2023-03-20T13:32:58.270Z,67.06
2023-03-20T13:35:44.703Z,67.50
2023-03-20T13:38:20.044Z,68.23
2023-03-20T13:40:51.580Z,68.22
2023-03-20T13:43:30.008Z,67.88
2023-03-20T13:46:07.718Z,67.54
2023-03-20T13:48:38.393Z,68.23
2023-03-20T13:51:21.372Z,68.65
2023-03-20T13:54:11.865Z,69.41
2023-03-20T13:56:55.658Z,69.03
2023-03-20T13:59:54.606Z,69.75
2023-03-20T14:02:57.565Z,69.69
2023-03-20T14:05:26.603Z,69.50
2023-03-20T14:07:59.484Z,69.34
2023-03-20T14:10:38.298Z,69.95
2023-03-20T14:13:16.249Z,70.35
2023-03-20T14:15:55.359Z,70.18
2023-03-20T14:18:26.470Z,70.63
2023-03-20T14:21:12.650Z,70.02
2023-03-20T14:23:47.084Z,69.14
2023-03-20T14:26:25.149Z,69.92
2023-03-20T14:29:05.633Z,70.03
2023-03-20T14:31:38.246Z,70.13
2023-03-20T14:34:18.990Z,69.88
2023-03-20T14:37:00.603Z,70.25
2023-03-20T14:39:46.427Z,69.94
2023-03-20T14:42:40.322Z,70.41
2023-03-20T14:45:36.592Z,70.40
2023-03-20T14:48:24.701Z,70.92
2023-03-20T14:51:15.385Z,70.06
2023-03-20T14:53:44.960Z,70.05
2023-03-20T14:56:16.160Z,70.40
2023-03-20T14:59:05.398Z,69.91
2023-03-20T15:01:58.922Z,70.19
2023-03-20T15:04:33.976Z,69.45
2023-03-20T15:07:07.661Z,69.56
2023-03-20T15:09:43.500Z,69.43
2023-03-20T15:12:17.755Z,69.29
2023-03-20T15:14:52.700Z,69.75
2023-03-20T15:17:25.021Z,69.41
2023-03-20T15:20:04.390Z,69.59
2023-03-20T15:22:39.925Z,69.89
2023-03-20T15:25:18.480Z,69.46
2023-03-20T15:27:47.988Z,70.15
2023-03-20T15:30:35.667Z,70.09
2023-03-20T15:33:04.229Z,70.27
2023-03-20T15:35:32.559Z,69.80
2023-03-20T15:38:08.173Z,69.45
2023-03-20T15:40:50.737Z,69.46
2023-03-20T15:43:24.075Z,69.49
2023-03-20T15:46:02.801Z,69.60
2023-03-20T15:48:34.682Z,68.55
2023-03-20T15:51:06.388Z,68.96
2023-03-20T15:53:39.168Z,68.74
2023-03-20T15:56:20.719Z,68.57
2023-03-20T15:58:53.344Z,68.75
2023-03-20T16:01:24.619Z,68.23
2023-03-20T16:03:57.884Z,68.14
2023-03-20T16:06:26.655Z,68.33
2023-03-20T16:09:00.061Z,68.31
2023-03-20T16:11:40.621Z,67.99
2023-03-20T16:14:15.861Z,68.50
2023-03-20T16:16:48.299Z,69.00
2023-03-20T16:19:17.196Z,69.44
2023-03-20T16:21:53.302Z,69.58
2023-03-20T16:24:28.142Z,69.76
2023-03-20T16:26:59.155Z,69.73
2023-03-20T16:29:30.862Z,70.49
2023-03-20T16:32:04.857Z,69.84
2023-03-20T16:34:38.776Z,70.42
2023-03-20T16:37:22.885Z,69.66
2023-03-20T16:40:04.962Z,70.51
2023-03-20T16:42:34.579Z,70.42
2023-03-20T16:45:16.619Z,70.53
2023-03-20T16:47:45.938Z,70.90
2023-03-20T16:50:22.891Z,70.80
2023-03-20T16:52:57.037Z,70.50
2023-03-20T16:55:30.753Z,70.85
2023-03-20T16:58:05.862Z,70.69
2023-03-20T17:00:44.037Z,71.01
2023-03-20T17:03:17.666Z,71.02
2023-03-20T17:05:56.256Z,71.48
2023-03-20T17:08:31.753Z,71.72
2023-03-20T17:11:10.453Z,71.49
2023-03-20T17:13:39.911Z,71.89
2023-03-20T17:16:11.313Z,71.94
2023-03-20T17:18:39.363Z,71.71
2023-03-20T17:21:08.118Z,72.14
2023-03-20T17:23:36.109Z,72.07
2023-03-20T17:26:04.122Z,72.38
2023-03-20T17:28:37.004Z,72.44
2023-03-20T17:31:06.888Z,72.58
2023-03-20T17:33:36.257Z,72.81
2023-03-20T17:40:30.182Z,72.77
2023-03-20T17:43:03.963Z,73.09
2023-03-20T17:45:45.373Z,72.90
2023-03-20T17:48:30.182Z,73.62
2023-03-20T17:50:58.496Z,73.47
2023-03-20T17:53:28.980Z,72.90
2023-03-20T17:55:57.250Z,72.79
2023-03-20T17:58:25.577Z,72.74
2023-03-20T18:00:55.934Z,72.96
2023-03-20T18:03:26.541Z,73.20
2023-03-20T18:05:58.189Z,73.29
2023-03-20T18:08:26.210Z,73.39
2023-03-20T18:10:55.416Z,73.57
2023-03-20T18:13:26.425Z,73.94
2023-03-20T18:15:58.055Z,73.62
2023-03-20T18:18:27.614Z,73.60
2023-03-20T18:20:57.298Z,73.20
2023-03-20T18:23:25.226Z,73.85
2023-03-20T18:25:53.456Z,73.52
2023-03-20T18:28:23.072Z,74.51
2023-03-20T18:30:51.907Z,73.43
2023-03-20T18:33:25.102Z,74.39
2023-03-20T18:35:55.126Z,74.94
2023-03-20T18:38:24.750Z,74.67
2023-03-20T18:40:52.764Z,74.73
2023-03-20T18:43:20.702Z,75.49
2023-03-20T18:45:48.748Z,75.83
2023-03-20T18:48:19.225Z,75.52
2023-03-20T18:50:50.873Z,75.27
2023-03-20T18:53:20.463Z,75.53
2023-03-20T18:55:50.637Z,75.81
2023-03-20T18:58:24.388Z,75.87
2023-03-20T19:00:53.993Z,75.55
2023-03-20T19:03:25.379Z,75.23
2023-03-20T19:05:55.787Z,75.41
2023-03-20T19:08:25.574Z,75.11
2023-03-20T19:10:53.580Z,75.84
2023-03-20T19:13:22.383Z,75.68
2023-03-20T19:15:50.471Z,75.87
2023-03-20T19:18:23.771Z,76.21
2023-03-20T19:20:53.471Z,76.43
2023-03-20T19:23:21.655Z,75.68
2023-03-20T19:25:55.412Z,76.00
2023-03-20T19:28:37.619Z,76.56
2023-03-20T19:31:06.699Z,76.84
2023-03-20T19:33:34.784Z,76.49
2023-03-20T19:36:04.367Z,76.14
2023-03-20T19:38:33.867Z,75.99
2023-03-20T19:41:03.769Z,76.70
2023-03-20T19:43:33.019Z,76.92
2023-03-20T19:46:00.995Z,76.19
2023-03-20T19:48:49.174Z,76.87
2023-03-20T19:51:21.043Z,76.78
2023-03-20T19:53:50.616Z,76.85
2023-03-20T19:56:24.299Z,75.83
2023-03-20T19:58:52.848Z,76.61
2023-03-20T20:01:25.114Z,76.62
2023-03-20T20:03:54.968Z,76.02
2023-03-20T20:06:27.901Z,75.76
2023-03-20T20:08:58.863Z,76.44
2023-03-20T20:11:28.274Z,76.05
2023-03-20T20:14:24.213Z,76.03
2023-03-20T20:16:45.498Z,75.93
2023-03-20T20:19:13.749Z,76.00
2023-03-20T20:24:29.559Z,76.02
2023-03-20T20:27:15.796Z,76.13
2023-03-20T20:29:48.958Z,76.78
2023-03-20T20:32:17.732Z,77.23
2023-03-20T20:35:35.025Z,76.83
2023-03-20T20:40:25.552Z,76.90
2023-03-20T20:43:01.441Z,77.07
2023-03-20T20:45:31.769Z,77.16
2023-03-20T20:48:00.942Z,76.75
2023-03-20T20:50:31.684Z,76.71
2023-03-20T20:53:00.566Z,76.24
2023-03-20T20:55:28.505Z,76.86
2023-03-20T20:57:58.368Z,76.24
2023-03-20T21:00:47.617Z,76.89
2023-03-20T21:03:15.808Z,76.56
2023-03-20T21:05:43.917Z,75.96
2023-03-20T21:08:13.966Z,76.10
2023-03-20T21:10:41.874Z,75.97
2023-03-20T21:13:11.128Z,75.39
2023-03-20T21:15:39.709Z,75.33
2023-03-20T21:18:07.975Z,75.52
2023-03-20T21:20:36.137Z,74.77
2023-03-20T21:23:04.131Z,73.93
2023-03-20T21:25:40.142Z,74.61
2023-03-20T21:28:11.129Z,74.31
2023-03-20T21:30:56.176Z,74.32
2023-03-20T21:33:29.689Z,74.15
2023-03-20T21:35:57.638Z,74.08
2023-03-20T21:41:14.205Z,74.60
2023-03-20T21:43:46.521Z,74.26
2023-03-20T21:52:41.855Z,74.62
2023-03-20T21:55:14.967Z,74.34
2023-03-20T21:58:16.966Z,74.38
2023-03-20T22:03:10.919Z,74.54
2023-03-20T22:06:21.079Z,74.66
2023-03-20T22:09:30.893Z,74.32
2023-03-20T22:14:52.150Z,73.39
2023-03-20T22:17:46.499Z,74.56
2023-03-20T22:20:35.357Z,73.24
2023-03-20T22:37:24.622Z,72.62
2023-03-20T22:45:03.232Z,72.80
2023-03-20T22:47:32.394Z,72.64
2023-03-20T22:50:02.005Z,72.11
2023-03-20T22:52:45.417Z,71.49
2023-03-20T22:55:16.981Z,72.06
2023-03-20T22:57:59.508Z,71.98
2023-03-20T23:00:33.076Z,72.03
2023-03-20T23:03:14.147Z,71.97
2023-03-20T23:05:47.193Z,71.68
2023-03-20T23:08:15.230Z,72.18
2023-03-20T23:10:49.397Z,72.06
2023-03-20T23:13:19.297Z,71.59
2023-03-20T23:15:50.444Z,71.98
2023-03-20T23:18:19.281Z,71.53
2023-03-20T23:20:48.519Z,71.96
2023-03-20T23:23:16.864Z,72.18
2023-03-20T23:25:45.261Z,71.67
2023-03-20T23:28:13.220Z,71.88
2023-03-20T23:30:48.093Z,71.53
2023-03-20T23:33:19.901Z,71.95
2023-03-20T23:35:51.221Z,71.40
2023-03-20T23:38:19.212Z,71.37
2023-03-20T23:40:50.537Z,71.79
2023-03-20T23:43:19.653Z,71.82
2023-03-20T23:45:48.143Z,72.26
2023-03-20T23:48:16.770Z,71.64
2023-03-20T23:50:53.133Z,72.22
2023-03-20T23:53:23.899Z,71.87
2023-03-20T23:55:56.131Z,72.32
2023-03-20T23:58:26.555Z,72.13
